sensor_id;sensor_type;location;lat;lon;timestamp;pressure;altitude;pressure_sealevel;temperature;humidity
49455;BME280;69710;64.656;21.218;2023-07-16T00:02:08;101023.85;;;14.19;83.12
49455;BME280;69710;64.656;21.218;2023-07-16T00:04:35;101025.04;;;14.62;82.00
49455;BME280;69710;64.656;21.218;2023-07-16T00:07:03;101025.78;;;14.53;81.91
49455;BME280;69710;64.656;21.218;2023-07-16T00:09:30;101024.42;;;14.66;82.03
49455;BME280;69710;64.656;21.218;2023-07-16T00:11:58;101022.61;;;14.73;81.87
49455;BME280;69710;64.656;21.218;2023-07-16T00:14:26;101023.38;;;14.37;83.16
49455;BME280;69710;64.656;21.218;2023-07-16T00:16:54;101020.38;;;15.00;80.80
49455;BME280;69710;64.656;21.218;2023-07-16T00:19:22;101021.89;;;14.15;83.38
49455;BME280;69710;64.656;21.218;2023-07-16T00:21:49;101021.67;;;14.78;82.96
49455;BME280;69710;64.656;21.218;2023-07-16T00:24:17;101021.71;;;14.69;81.97
49455;BME280;69710;64.656;21.218;2023-07-16T00:26:45;101023.24;;;13.71;84.91
49455;BME280;69710;64.656;21.218;2023-07-16T00:29:12;101023.88;;;14.12;83.60
49455;BME280;69710;64.656;21.218;2023-07-16T00:31:39;101016.09;;;14.54;84.37
49455;BME280;69710;64.656;21.218;2023-07-16T00:34:06;101008.75;;;14.15;85.81
49455;BME280;69710;64.656;21.218;2023-07-16T00:36:34;101012.87;;;14.17;86.39
49455;BME280;69710;64.656;21.218;2023-07-16T00:39:02;101015.23;;;13.96;86.26
49455;BME280;69710;64.656;21.218;2023-07-16T00:41:30;101015.84;;;13.91;86.93
49455;BME280;69710;64.656;21.218;2023-07-16T00:43:57;101018.50;;;13.74;87.08
49455;BME280;69710;64.656;21.218;2023-07-16T00:46:25;101017.06;;;13.34;86.66
49455;BME280;69710;64.656;21.218;2023-07-16T00:48:53;101016.75;;;13.90;87.49
49455;BME280;69710;64.656;21.218;2023-07-16T00:51:22;101015.09;;;14.54;84.69
49455;BME280;69710;64.656;21.218;2023-07-16T00:53:51;101013.10;;;14.26;85.40
49455;BME280;69710;64.656;21.218;2023-07-16T00:56:19;101012.05;;;14.35;84.90
49455;BME280;69710;64.656;21.218;2023-07-16T00:58:47;101012.19;;;13.94;85.44
49455;BME280;69710;64.656;21.218;2023-07-16T01:01:14;101012.55;;;14.10;86.11
49455;BME280;69710;64.656;21.218;2023-07-16T01:03:41;101013.12;;;14.55;84.55
49455;BME280;69710;64.656;21.218;2023-07-16T01:06:16;101012.51;;;14.29;84.69
49455;BME280;69710;64.656;21.218;2023-07-16T01:08:49;101014.19;;;14.77;83.54
49455;BME280;69710;64.656;21.218;2023-07-16T01:11:17;101007.53;;;14.78;82.21
49455;BME280;69710;64.656;21.218;2023-07-16T01:13:46;101007.24;;;14.60;81.46
49455;BME280;69710;64.656;21.218;2023-07-16T01:16:19;101004.98;;;15.12;80.81
49455;BME280;69710;64.656;21.218;2023-07-16T01:18:48;101005.00;;;15.77;78.99
49455;BME280;69710;64.656;21.218;2023-07-16T01:21:17;101009.43;;;15.52;79.09
49455;BME280;69710;64.656;21.218;2023-07-16T01:24:00;101007.10;;;15.98;77.37
49455;BME280;69710;64.656;21.218;2023-07-16T01:26:47;101008.93;;;15.15;78.35
49455;BME280;69710;64.656;21.218;2023-07-16T01:29:28;101011.05;;;15.30;77.53
49455;BME280;69710;64.656;21.218;2023-07-16T01:32:00;101010.06;;;15.77;76.59
49455;BME280;69710;64.656;21.218;2023-07-16T01:34:30;101010.82;;;16.28;74.38
49455;BME280;69710;64.656;21.218;2023-07-16T01:36:59;101011.30;;;16.14;74.63
49455;BME280;69710;64.656;21.218;2023-07-16T01:39:28;101017.71;;;16.53;73.81
49455;BME280;69710;64.656;21.218;2023-07-16T01:41:57;101013.14;;;15.90;74.68
49455;BME280;69710;64.656;21.218;2023-07-16T01:44:25;101013.63;;;16.92;72.59
49455;BME280;69710;64.656;21.218;2023-07-16T01:47:06;101015.18;;;17.77;69.09
49455;BME280;69710;64.656;21.218;2023-07-16T01:49:34;101016.10;;;18.22;67.85
49455;BME280;69710;64.656;21.218;2023-07-16T01:52:03;101022.13;;;19.49;65.02
49455;BME280;69710;64.656;21.218;2023-07-16T01:54:30;101023.34;;;18.25;64.35
49455;BME280;69710;64.656;21.218;2023-07-16T01:56:59;101020.21;;;19.11;63.58
49455;BME280;69710;64.656;21.218;2023-07-16T01:59:27;101015.07;;;19.05;63.91
49455;BME280;69710;64.656;21.218;2023-07-16T02:01:55;101011.45;;;17.67;65.40
49455;BME280;69710;64.656;21.218;2023-07-16T02:04:23;101009.77;;;18.60;65.03
49455;BME280;69710;64.656;21.218;2023-07-16T02:06:51;101011.69;;;18.61;66.45
49455;BME280;69710;64.656;21.218;2023-07-16T02:09:19;101009.24;;;17.94;68.12
49455;BME280;69710;64.656;21.218;2023-07-16T02:11:47;101003.12;;;18.35;68.02
49455;BME280;69710;64.656;21.218;2023-07-16T02:14:15;101007.35;;;17.44;71.11
49455;BME280;69710;64.656;21.218;2023-07-16T02:16:43;101007.30;;;17.14;74.01
49455;BME280;69710;64.656;21.218;2023-07-16T02:19:11;101005.39;;;17.02;73.86
49455;BME280;69710;64.656;21.218;2023-07-16T02:21:39;100997.51;;;17.52;74.00
49455;BME280;69710;64.656;21.218;2023-07-16T02:24:07;100992.90;;;17.31;75.71
49455;BME280;69710;64.656;21.218;2023-07-16T02:26:35;100992.19;;;17.56;76.38
49455;BME280;69710;64.656;21.218;2023-07-16T02:29:03;101001.47;;;16.74;79.27
49455;BME280;69710;64.656;21.218;2023-07-16T02:31:30;100993.08;;;16.78;79.74
49455;BME280;69710;64.656;21.218;2023-07-16T02:33:58;100993.94;;;17.33;78.40
49455;BME280;69710;64.656;21.218;2023-07-16T02:36:26;101005.84;;;16.57;81.19
49455;BME280;69710;64.656;21.218;2023-07-16T02:38:54;101011.98;;;16.59;82.22
49455;BME280;69710;64.656;21.218;2023-07-16T02:41:22;101012.20;;;16.77;82.68
49455;BME280;69710;64.656;21.218;2023-07-16T02:43:59;101017.30;;;16.80;83.14
49455;BME280;69710;64.656;21.218;2023-07-16T02:46:27;101024.99;;;16.46;83.44
49455;BME280;69710;64.656;21.218;2023-07-16T02:48:55;101024.94;;;16.63;85.05
49455;BME280;69710;64.656;21.218;2023-07-16T02:51:23;101028.23;;;16.92;84.86
49455;BME280;69710;64.656;21.218;2023-07-16T02:53:51;101025.09;;;16.80;86.01
49455;BME280;69710;64.656;21.218;2023-07-16T02:56:19;101019.52;;;16.76;85.52
49455;BME280;69710;64.656;21.218;2023-07-16T02:58:47;101024.08;;;16.62;86.48
49455;BME280;69710;64.656;21.218;2023-07-16T03:01:14;101017.35;;;17.14;86.80
49455;BME280;69710;64.656;21.218;2023-07-16T03:03:41;101018.93;;;16.70;87.99
49455;BME280;69710;64.656;21.218;2023-07-16T03:06:09;101015.62;;;16.74;88.58
49455;BME280;69710;64.656;21.218;2023-07-16T03:08:37;101014.91;;;16.99;90.59
49455;BME280;69710;64.656;21.218;2023-07-16T03:11:05;101010.29;;;16.41;93.65
49455;BME280;69710;64.656;21.218;2023-07-16T03:13:33;101000.31;;;16.95;94.74
49455;BME280;69710;64.656;21.218;2023-07-16T03:16:01;100996.31;;;17.09;95.03
49455;BME280;69710;64.656;21.218;2023-07-16T03:18:29;100997.48;;;17.15;93.81
49455;BME280;69710;64.656;21.218;2023-07-16T03:20:57;100995.86;;;17.54;94.78
49455;BME280;69710;64.656;21.218;2023-07-16T03:23:25;100995.81;;;18.13;93.04
49455;BME280;69710;64.656;21.218;2023-07-16T03:25:53;100997.60;;;18.83;91.28
49455;BME280;69710;64.656;21.218;2023-07-16T03:28:20;100998.93;;;18.37;91.80
49455;BME280;69710;64.656;21.218;2023-07-16T03:30:49;100993.81;;;18.89;90.36
49455;BME280;69710;64.656;21.218;2023-07-16T03:33:17;100990.80;;;19.40;88.62
49455;BME280;69710;64.656;21.218;2023-07-16T03:35:45;100993.13;;;19.79;85.97
49455;BME280;69710;64.656;21.218;2023-07-16T03:38:14;100992.14;;;20.74;83.91
49455;BME280;69710;64.656;21.218;2023-07-16T03:40:46;100994.62;;;20.68;80.60
49455;BME280;69710;64.656;21.218;2023-07-16T03:43:15;100982.83;;;21.27;78.30
49455;BME280;69710;64.656;21.218;2023-07-16T03:45:43;100988.20;;;21.20;77.06
49455;BME280;69710;64.656;21.218;2023-07-16T03:48:11;100992.89;;;20.68;78.11
49455;BME280;69710;64.656;21.218;2023-07-16T03:50:39;100995.24;;;20.50;79.38
49455;BME280;69710;64.656;21.218;2023-07-16T03:53:08;100994.26;;;20.52;79.02
49455;BME280;69710;64.656;21.218;2023-07-16T03:55:35;100989.16;;;21.98;76.00
49455;BME280;69710;64.656;21.218;2023-07-16T03:58:04;100989.95;;;22.08;75.88
49455;BME280;69710;64.656;21.218;2023-07-16T04:00:31;100989.76;;;22.64;74.17
49455;BME280;69710;64.656;21.218;2023-07-16T04:02:59;100985.52;;;22.78;72.22
49455;BME280;69710;64.656;21.218;2023-07-16T04:05:28;100985.41;;;21.18;76.72
49455;BME280;69710;64.656;21.218;2023-07-16T04:07:55;100990.20;;;21.27;78.17
49455;BME280;69710;64.656;21.218;2023-07-16T04:10:23;100997.85;;;21.23;79.25
49455;BME280;69710;64.656;21.218;2023-07-16T04:12:51;101007.21;;;21.08;79.12
49455;BME280;69710;64.656;21.218;2023-07-16T04:15:19;101009.36;;;21.03;78.84
49455;BME280;69710;64.656;21.218;2023-07-16T04:17:48;101011.82;;;20.90;81.37
49455;BME280;69710;64.656;21.218;2023-07-16T04:20:15;101012.32;;;20.99;83.15
49455;BME280;69710;64.656;21.218;2023-07-16T04:22:43;101004.57;;;20.78;82.96
49455;BME280;69710;64.656;21.218;2023-07-16T04:25:11;101001.81;;;20.52;84.82
49455;BME280;69710;64.656;21.218;2023-07-16T04:27:40;100996.89;;;20.28;86.96
49455;BME280;69710;64.656;21.218;2023-07-16T04:30:09;101002.22;;;20.61;86.00
49455;BME280;69710;64.656;21.218;2023-07-16T04:32:36;101003.61;;;20.74;85.83
49455;BME280;69710;64.656;21.218;2023-07-16T04:35:05;101000.65;;;19.96;88.95
49455;BME280;69710;64.656;21.218;2023-07-16T04:37:33;100990.22;;;19.77;88.40
49455;BME280;69710;64.656;21.218;2023-07-16T04:40:01;100985.63;;;19.97;88.54
49455;BME280;69710;64.656;21.218;2023-07-16T04:42:30;100983.72;;;20.16;88.27
49455;BME280;69710;64.656;21.218;2023-07-16T04:44:57;100992.54;;;19.95;90.05
49455;BME280;69710;64.656;21.218;2023-07-16T04:47:25;100993.15;;;19.60;90.84
49455;BME280;69710;64.656;21.218;2023-07-16T04:49:53;100994.56;;;19.93;90.36
49455;BME280;69710;64.656;21.218;2023-07-16T04:52:21;100994.67;;;19.38;92.90
49455;BME280;69710;64.656;21.218;2023-07-16T04:54:49;100995.29;;;19.01;94.65
49455;BME280;69710;64.656;21.218;2023-07-16T04:57:17;100991.18;;;19.32;93.63
49455;BME280;69710;64.656;21.218;2023-07-16T04:59:45;100995.06;;;19.03;94.95
49455;BME280;69710;64.656;21.218;2023-07-16T05:02:14;100988.78;;;19.27;93.65
49455;BME280;69710;64.656;21.218;2023-07-16T05:04:41;100991.27;;;19.73;91.81
49455;BME280;69710;64.656;21.218;2023-07-16T05:07:10;100990.51;;;19.77;93.30
49455;BME280;69710;64.656;21.218;2023-07-16T05:09:38;100996.13;;;19.83;91.49
49455;BME280;69710;64.656;21.218;2023-07-16T05:12:05;100997.23;;;19.12;93.46
49455;BME280;69710;64.656;21.218;2023-07-16T05:14:46;100999.89;;;18.47;96.04
49455;BME280;69710;64.656;21.218;2023-07-16T05:17:14;100993.85;;;18.53;97.73
49455;BME280;69710;64.656;21.218;2023-07-16T05:19:42;100989.80;;;18.61;97.87
49455;BME280;69710;64.656;21.218;2023-07-16T05:22:10;100993.40;;;19.17;96.17
49455;BME280;69710;64.656;21.218;2023-07-16T05:24:37;100992.22;;;18.83;98.42
49455;BME280;69710;64.656;21.218;2023-07-16T05:27:06;100991.94;;;18.27;99.91
49455;BME280;69710;64.656;21.218;2023-07-16T05:29:34;100992.11;;;18.32;99.90
49455;BME280;69710;64.656;21.218;2023-07-16T05:32:03;100994.09;;;18.60;99.23
49455;BME280;69710;64.656;21.218;2023-07-16T05:34:31;100987.94;;;19.14;96.69
49455;BME280;69710;64.656;21.218;2023-07-16T05:37:00;100987.63;;;18.78;98.69
49455;BME280;69710;64.656;21.218;2023-07-16T05:39:27;100982.64;;;18.87;99.94
49455;BME280;69710;64.656;21.218;2023-07-16T05:41:55;100989.51;;;19.23;99.78
49455;BME280;69710;64.656;21.218;2023-07-16T05:44:23;100984.69;;;18.59;100.00
49455;BME280;69710;64.656;21.218;2023-07-16T05:46:51;100986.52;;;18.57;100.00
49455;BME280;69710;64.656;21.218;2023-07-16T05:49:18;100979.44;;;18.74;99.45
49455;BME280;69710;64.656;21.218;2023-07-16T05:51:47;100981.19;;;18.94;98.91
49455;BME280;69710;64.656;21.218;2023-07-16T05:54:15;100976.65;;;18.95;98.52
49455;BME280;69710;64.656;21.218;2023-07-16T05:56:43;100979.15;;;18.97;100.00
49455;BME280;69710;64.656;21.218;2023-07-16T05:59:11;100974.21;;;19.63;97.31
49455;BME280;69710;64.656;21.218;2023-07-16T06:01:38;100968.27;;;19.29;98.28
49455;BME280;69710;64.656;21.218;2023-07-16T06:04:07;100963.47;;;19.01;98.52
49455;BME280;69710;64.656;21.218;2023-07-16T06:06:36;100961.23;;;19.39;97.21
49455;BME280;69710;64.656;21.218;2023-07-16T06:09:04;100953.09;;;19.15;98.90
49455;BME280;69710;64.656;21.218;2023-07-16T06:11:32;100953.98;;;19.55;96.93
49455;BME280;69710;64.656;21.218;2023-07-16T06:14:00;100955.33;;;19.46;97.91
49455;BME280;69710;64.656;21.218;2023-07-16T06:16:28;100953.84;;;19.12;99.54
49455;BME280;69710;64.656;21.218;2023-07-16T06:18:55;100949.46;;;19.12;99.48
49455;BME280;69710;64.656;21.218;2023-07-16T06:21:24;100946.15;;;18.21;100.00
49455;BME280;69710;64.656;21.218;2023-07-16T06:23:52;100941.76;;;18.37;100.00
49455;BME280;69710;64.656;21.218;2023-07-16T06:26:20;100938.25;;;18.88;100.00
49455;BME280;69710;64.656;21.218;2023-07-16T06:28:48;100935.66;;;18.83;99.93
49455;BME280;69710;64.656;21.218;2023-07-16T06:31:17;100929.38;;;18.93;99.69
49455;BME280;69710;64.656;21.218;2023-07-16T06:33:45;100932.60;;;19.57;97.71
49455;BME280;69710;64.656;21.218;2023-07-16T06:36:14;100931.21;;;19.17;96.87
49455;BME280;69710;64.656;21.218;2023-07-16T07:03:10;100917.75;;;19.18;98.15
49455;BME280;69710;64.656;21.218;2023-07-16T07:05:41;100919.53;;;18.89;98.13
49455;BME280;69710;64.656;21.218;2023-07-16T07:08:09;100913.59;;;19.23;98.56
49455;BME280;69710;64.656;21.218;2023-07-16T07:10:37;100906.73;;;19.07;98.66
49455;BME280;69710;64.656;21.218;2023-07-16T07:13:05;100901.18;;;19.00;98.48
49455;BME280;69710;64.656;21.218;2023-07-16T07:15:34;100899.01;;;19.00;99.43
49455;BME280;69710;64.656;21.218;2023-07-16T07:18:01;100895.51;;;19.16;98.41
49455;BME280;69710;64.656;21.218;2023-07-16T07:20:29;100889.04;;;18.91;99.36
49455;BME280;69710;64.656;21.218;2023-07-16T07:22:56;100889.47;;;19.14;98.74
49455;BME280;69710;64.656;21.218;2023-07-16T07:25:24;100888.63;;;19.67;96.84
49455;BME280;69710;64.656;21.218;2023-07-16T07:27:52;100889.88;;;19.21;97.32
49455;BME280;69710;64.656;21.218;2023-07-16T07:30:20;100887.31;;;18.67;99.04
49455;BME280;69710;64.656;21.218;2023-07-16T07:32:48;100878.58;;;18.72;98.36
49455;BME280;69710;64.656;21.218;2023-07-16T07:35:16;100877.45;;;19.09;95.53
49455;BME280;69710;64.656;21.218;2023-07-16T07:37:44;100882.99;;;19.30;95.80
49455;BME280;69710;64.656;21.218;2023-07-16T07:40:12;100881.46;;;19.32;94.39
49455;BME280;69710;64.656;21.218;2023-07-16T07:42:40;100884.65;;;19.80;94.06
49455;BME280;69710;64.656;21.218;2023-07-16T07:45:08;100882.40;;;19.48;93.30
49455;BME280;69710;64.656;21.218;2023-07-16T07:47:36;100882.34;;;19.55;92.26
49455;BME280;69710;64.656;21.218;2023-07-16T07:50:04;100881.23;;;19.86;92.06
49455;BME280;69710;64.656;21.218;2023-07-16T07:52:33;100878.23;;;19.71;91.65
49455;BME280;69710;64.656;21.218;2023-07-16T07:55:01;100871.34;;;19.81;91.87
49455;BME280;69710;64.656;21.218;2023-07-16T07:57:29;100864.85;;;19.55;92.40
49455;BME280;69710;64.656;21.218;2023-07-16T07:59:57;100859.53;;;19.65;91.51
49455;BME280;69710;64.656;21.218;2023-07-16T08:02:25;100855.69;;;19.50;91.94
49455;BME280;69710;64.656;21.218;2023-07-16T08:04:53;100848.61;;;20.08;90.67
49455;BME280;69710;64.656;21.218;2023-07-16T08:07:21;100842.94;;;19.30;92.01
49455;BME280;69710;64.656;21.218;2023-07-16T08:09:49;100841.66;;;19.82;90.55
49455;BME280;69710;64.656;21.218;2023-07-16T08:12:17;100844.47;;;19.74;91.82
49455;BME280;69710;64.656;21.218;2023-07-16T08:14:45;100841.01;;;20.19;91.25
49455;BME280;69710;64.656;21.218;2023-07-16T08:17:13;100837.57;;;20.05;91.00
49455;BME280;69710;64.656;21.218;2023-07-16T08:19:41;100838.52;;;20.22;89.38
49455;BME280;69710;64.656;21.218;2023-07-16T08:22:09;100836.58;;;20.28;90.30
49455;BME280;69710;64.656;21.218;2023-07-16T08:24:37;100833.85;;;19.91;91.13
49455;BME280;69710;64.656;21.218;2023-07-16T08:27:06;100826.84;;;20.70;89.44
49455;BME280;69710;64.656;21.218;2023-07-16T08:29:35;100826.82;;;20.87;88.85
49455;BME280;69710;64.656;21.218;2023-07-16T08:32:04;100819.01;;;20.24;88.39
49455;BME280;69710;64.656;21.218;2023-07-16T08:34:32;100817.09;;;20.18;89.01
49455;BME280;69710;64.656;21.218;2023-07-16T08:37:00;100817.82;;;20.07;90.48
49455;BME280;69710;64.656;21.218;2023-07-16T08:39:28;100811.27;;;20.39;90.06
49455;BME280;69710;64.656;21.218;2023-07-16T08:41:56;100816.19;;;20.43;89.94
49455;BME280;69710;64.656;21.218;2023-07-16T08:44:24;100821.61;;;20.57;89.28
49455;BME280;69710;64.656;21.218;2023-07-16T08:46:52;100820.25;;;20.13;90.20
49455;BME280;69710;64.656;21.218;2023-07-16T08:49:22;100818.86;;;19.95;89.57
49455;BME280;69710;64.656;21.218;2023-07-16T08:51:52;100821.64;;;20.47;88.22
49455;BME280;69710;64.656;21.218;2023-07-16T08:54:22;100821.47;;;20.21;87.24
49455;BME280;69710;64.656;21.218;2023-07-16T08:56:51;100821.83;;;19.81;88.44
49455;BME280;69710;64.656;21.218;2023-07-16T08:59:19;100827.03;;;19.89;87.28
49455;BME280;69710;64.656;21.218;2023-07-16T09:01:48;100822.36;;;19.72;86.79
49455;BME280;69710;64.656;21.218;2023-07-16T09:04:16;100813.14;;;19.62;86.71
49455;BME280;69710;64.656;21.218;2023-07-16T09:06:43;100810.64;;;19.76;88.13
49455;BME280;69710;64.656;21.218;2023-07-16T09:09:20;100819.32;;;19.57;86.97
49455;BME280;69710;64.656;21.218;2023-07-16T09:11:47;100810.98;;;19.20;89.94
49455;BME280;69710;64.656;21.218;2023-07-16T09:14:17;100805.69;;;19.11;90.42
49455;BME280;69710;64.656;21.218;2023-07-16T09:16:48;100801.31;;;19.70;89.66
49455;BME280;69710;64.656;21.218;2023-07-16T09:19:16;100800.86;;;19.79;88.13
49455;BME280;69710;64.656;21.218;2023-07-16T09:21:46;100793.08;;;19.60;88.53
49455;BME280;69710;64.656;21.218;2023-07-16T09:24:13;100786.31;;;19.68;88.78
49455;BME280;69710;64.656;21.218;2023-07-16T09:26:48;100783.70;;;19.19;90.21
49455;BME280;69710;64.656;21.218;2023-07-16T09:29:16;100777.04;;;18.85;90.80
49455;BME280;69710;64.656;21.218;2023-07-16T09:32:01;100772.93;;;19.06;91.67
49455;BME280;69710;64.656;21.218;2023-07-16T09:34:29;100767.72;;;18.94;90.88
49455;BME280;69710;64.656;21.218;2023-07-16T09:36:57;100766.72;;;18.69;91.59
49455;BME280;69710;64.656;21.218;2023-07-16T09:39:26;100773.13;;;18.65;92.07
49455;BME280;69710;64.656;21.218;2023-07-16T09:41:54;100773.99;;;18.97;89.48
49455;BME280;69710;64.656;21.218;2023-07-16T09:44:22;100774.26;;;18.91;89.81
49455;BME280;69710;64.656;21.218;2023-07-16T09:46:50;100785.61;;;19.00;90.75
49455;BME280;69710;64.656;21.218;2023-07-16T09:49:18;100787.00;;;18.65;92.69
49455;BME280;69710;64.656;21.218;2023-07-16T09:51:48;100788.81;;;18.54;94.54
49455;BME280;69710;64.656;21.218;2023-07-16T09:54:19;100789.36;;;18.37;96.10
49455;BME280;69710;64.656;21.218;2023-07-16T09:56:51;100790.70;;;17.82;99.60
49455;BME280;69710;64.656;21.218;2023-07-16T09:59:24;100790.59;;;18.06;97.45
49455;BME280;69710;64.656;21.218;2023-07-16T10:01:54;100788.69;;;17.56;100.00
49455;BME280;69710;64.656;21.218;2023-07-16T10:04:22;100777.85;;;18.37;98.70
49455;BME280;69710;64.656;21.218;2023-07-16T10:06:52;100777.70;;;18.29;99.54
49455;BME280;69710;64.656;21.218;2023-07-16T10:09:36;100777.06;;;18.29;99.19
49455;BME280;69710;64.656;21.218;2023-07-16T10:12:13;100776.56;;;18.17;98.60
49455;BME280;69710;64.656;21.218;2023-07-16T10:14:42;100775.46;;;17.98;98.73
49455;BME280;69710;64.656;21.218;2023-07-16T10:17:15;100768.91;;;18.06;98.94
49455;BME280;69710;64.656;21.218;2023-07-16T10:19:56;100767.86;;;18.09;99.04
49455;BME280;69710;64.656;21.218;2023-07-16T10:22:33;100758.79;;;18.24;96.86
49455;BME280;69710;64.656;21.218;2023-07-16T10:25:02;100752.33;;;18.18;96.52
49455;BME280;69710;64.656;21.218;2023-07-16T10:27:32;100745.20;;;18.54;96.07
49455;BME280;69710;64.656;21.218;2023-07-16T10:30:00;100747.10;;;18.10;97.15
49455;BME280;69710;64.656;21.218;2023-07-16T10:32:29;100741.71;;;18.14;95.91
49455;BME280;69710;64.656;21.218;2023-07-16T10:34:58;100737.94;;;18.36;95.97
49455;BME280;69710;64.656;21.218;2023-07-16T10:37:26;100728.60;;;17.86;96.88
49455;BME280;69710;64.656;21.218;2023-07-16T10:39:56;100720.31;;;18.33;95.83
49455;BME280;69710;64.656;21.218;2023-07-16T10:42:25;100716.25;;;18.27;95.29
49455;BME280;69710;64.656;21.218;2023-07-16T10:44:57;100711.83;;;18.14;94.92
49455;BME280;69710;64.656;21.218;2023-07-16T10:47:29;100711.58;;;18.08;95.92
49455;BME280;69710;64.656;21.218;2023-07-16T10:49:57;100713.58;;;18.08;97.22
49455;BME280;69710;64.656;21.218;2023-07-16T10:52:27;100711.53;;;18.65;93.05
49455;BME280;69710;64.656;21.218;2023-07-16T10:54:54;100712.71;;;18.32;94.78
49455;BME280;69710;64.656;21.218;2023-07-16T10:57:22;100712.01;;;18.22;95.37
49455;BME280;69710;64.656;21.218;2023-07-16T10:59:52;100706.12;;;18.40;95.22
49455;BME280;69710;64.656;21.218;2023-07-16T11:02:22;100704.58;;;18.44;94.99
49455;BME280;69710;64.656;21.218;2023-07-16T11:04:51;100695.98;;;18.24;93.71
49455;BME280;69710;64.656;21.218;2023-07-16T11:07:19;100694.52;;;18.54;92.51
49455;BME280;69710;64.656;21.218;2023-07-16T11:09:49;100690.92;;;18.19;93.56
49455;BME280;69710;64.656;21.218;2023-07-16T11:12:18;100690.18;;;18.79;89.82
49455;BME280;69710;64.656;21.218;2023-07-16T11:14:47;100689.13;;;18.61;90.54
49455;BME280;69710;64.656;21.218;2023-07-16T11:17:16;100681.10;;;18.24;91.11
49455;BME280;69710;64.656;21.218;2023-07-16T11:19:46;100684.03;;;17.76;92.61
49455;BME280;69710;64.656;21.218;2023-07-16T11:22:15;100682.93;;;18.23;89.78
49455;BME280;69710;64.656;21.218;2023-07-16T11:24:44;100687.66;;;18.58;88.91
49455;BME280;69710;64.656;21.218;2023-07-16T11:27:14;100701.16;;;18.59;90.16
49455;BME280;69710;64.656;21.218;2023-07-16T11:29:46;100707.53;;;18.61;89.25
49455;BME280;69710;64.656;21.218;2023-07-16T11:32:25;100710.14;;;18.90;87.66
49455;BME280;69710;64.656;21.218;2023-07-16T11:34:53;100712.53;;;18.74;85.91
49455;BME280;69710;64.656;21.218;2023-07-16T11:37:21;100700.02;;;18.95;86.60
49455;BME280;69710;64.656;21.218;2023-07-16T11:39:50;100690.37;;;19.14;86.33
49455;BME280;69710;64.656;21.218;2023-07-16T11:42:23;100684.48;;;19.39;83.47
49455;BME280;69710;64.656;21.218;2023-07-16T11:44:52;100674.38;;;19.23;83.81
49455;BME280;69710;64.656;21.218;2023-07-16T11:47:19;100663.55;;;19.47;82.06
49455;BME280;69710;64.656;21.218;2023-07-16T11:49:48;100652.37;;;19.51;80.51
49455;BME280;69710;64.656;21.218;2023-07-16T11:52:19;100657.21;;;19.77;83.62
49455;BME280;69710;64.656;21.218;2023-07-16T11:54:48;100657.17;;;19.51;80.43
49455;BME280;69710;64.656;21.218;2023-07-16T11:57:16;100661.21;;;19.67;82.02
49455;BME280;69710;64.656;21.218;2023-07-16T11:59:44;100662.22;;;19.66;80.89
49455;BME280;69710;64.656;21.218;2023-07-16T12:02:12;100652.68;;;20.07;79.62
49455;BME280;69710;64.656;21.218;2023-07-16T12:04:40;100649.71;;;19.61;78.18
49455;BME280;69710;64.656;21.218;2023-07-16T12:07:07;100656.47;;;19.46;78.42
49455;BME280;69710;64.656;21.218;2023-07-16T12:09:35;100651.19;;;19.52;77.86
49455;BME280;69710;64.656;21.218;2023-07-16T12:12:04;100652.75;;;19.53;77.56
49455;BME280;69710;64.656;21.218;2023-07-16T12:14:32;100651.56;;;19.40;77.08
49455;BME280;69710;64.656;21.218;2023-07-16T12:17:00;100644.17;;;19.69;77.27
49455;BME280;69710;64.656;21.218;2023-07-16T12:19:28;100642.43;;;19.02;77.84
49455;BME280;69710;64.656;21.218;2023-07-16T12:21:57;100644.37;;;18.97;77.53
49455;BME280;69710;64.656;21.218;2023-07-16T12:24:26;100643.95;;;19.40;77.57
49455;BME280;69710;64.656;21.218;2023-07-16T12:26:53;100634.34;;;19.18;77.42
49455;BME280;69710;64.656;21.218;2023-07-16T12:29:21;100644.19;;;19.10;76.28
49455;BME280;69710;64.656;21.218;2023-07-16T12:31:49;100634.13;;;19.19;77.36
49455;BME280;69710;64.656;21.218;2023-07-16T12:34:17;100636.55;;;19.36;75.50
49455;BME280;69710;64.656;21.218;2023-07-16T12:36:45;100638.36;;;19.13;75.89
49455;BME280;69710;64.656;21.218;2023-07-16T12:39:13;100635.40;;;18.91;75.85
49455;BME280;69710;64.656;21.218;2023-07-16T12:41:43;100628.99;;;18.58;77.54
49455;BME280;69710;64.656;21.218;2023-07-16T12:44:10;100630.46;;;19.00;76.43
49455;BME280;69710;64.656;21.218;2023-07-16T12:46:38;100632.20;;;19.28;76.25
49455;BME280;69710;64.656;21.218;2023-07-16T12:49:06;100625.37;;;19.17;76.22
49455;BME280;69710;64.656;21.218;2023-07-16T12:51:33;100617.83;;;19.19;76.05
49455;BME280;69710;64.656;21.218;2023-07-16T12:54:01;100609.73;;;19.42;76.28
49455;BME280;69710;64.656;21.218;2023-07-16T12:56:30;100604.52;;;19.66;75.39
49455;BME280;69710;64.656;21.218;2023-07-16T12:58:58;100594.50;;;19.37;75.45
49455;BME280;69710;64.656;21.218;2023-07-16T13:01:26;100594.42;;;19.06;76.52
49455;BME280;69710;64.656;21.218;2023-07-16T13:03:54;100591.91;;;19.72;77.00
49455;BME280;69710;64.656;21.218;2023-07-16T13:06:22;100586.22;;;18.99;77.24
49455;BME280;69710;64.656;21.218;2023-07-16T13:08:50;100585.03;;;19.78;76.58
49455;BME280;69710;64.656;21.218;2023-07-16T13:11:18;100585.56;;;19.01;77.94
49455;BME280;69710;64.656;21.218;2023-07-16T13:13:46;100591.93;;;19.00;78.46